Terminal Aerodrome Forecast
Issued by NWS Green Bay, WI

Home | Current Version | Previous Version | Graphics & Text | Print | Product List | Glossary On
Versions: 1 2 3 4 5 6 7 8 9 10 11 12 13 14
000
FTUS43 KGRB 151720
TAFGRB
TAF
KGRB 151720Z 1518/1618 22007KT P6SM SCT250
     FM160100 22003KT P6SM SCT250
      TEMPO 1610/1614 5SM BR
     FM161500 22004KT P6SM FEW120 BKN200=

USA.gov is the U.S. government's official web portal to all federal, state and local government web resources and services.